El Mirage, Arizona
Current Conditions -  °F | °C
As of 6:47 AM on Friday 28 Nov 2014 (Local Time) from KGEU Reporting Station
Few Clouds Few Clouds  
Wind Chill: 48°   Ceiling: Unl
Heat Index: 48°   Visibility: 20mi
Dew Point: 28°   Wind: 0mph
Humidity: 46%   Direction: NA
Pressure: 30.06"   Gusts: NA
Location:  33.62°N, 112.32°W
Report Text: KGEU 281347Z 00000KT 20SM FEW250 09/M02 A3006
Loading
Personal Weather Stations






























Interactive Weather Map New forecast layout! Learn more

10-Day Weather Forecast

Advertisements
Track Severe Weather on mobile